Aviation Digital Data Service (ADDS)

Output produced by METARs form (0400 UTC 24 January 2019)
found at http://www.aviationweather.gov/metar/data/
 
METAR text: EVRA 240350Z 21005KT 9999 SCT019 M05/M07 Q1015 R18/490295 NOSIG
Conditions at: EVRA (RIGA AIRPORT , LV) observed 0350 UTC 24 January 2019
Temperature: -5.0°C (23°F)
Dewpoint: -7.0°C (19°F) [RH = 86%]
Pressure (altimeter): 29.97 inches Hg (1015.0 mb)
Winds: from the SSW (210 degrees) at 6 MPH (5 knots; 2.6 m/s)
Visibility: 6 or more miles (10+ km)
Ceiling: at least 12,000 feet AGL
Clouds: scattered clouds at 1900 feet AGL
Weather: no significant weather observed at this time

METAR text: EVRA 240320Z 22005KT 9999 FEW036 BKN044 M05/M07 Q1015 R18/490295 NOSIG
Conditions at: EVRA (RIGA AIRPORT , LV) observed 0320 UTC 24 January 2019
Temperature: -5.0°C (23°F)
Dewpoint: -7.0°C (19°F) [RH = 86%]
Pressure (altimeter): 29.97 inches Hg (1015.0 mb)
Winds: from the SW (220 degrees) at 6 MPH (5 knots; 2.6 m/s)
Visibility: 6 or more miles (10+ km)
Ceiling: 4400 feet AGL
Clouds: few clouds at 3600 feet AGL
broken clouds at 4400 feet AGL
Weather: no significant weather observed at this time

METAR text: EVRA 240250Z 22006KT 9999 -SN SCT026 OVC046 M05/M07 Q1015 R18/410195 NOSIG
Conditions at: EVRA (RIGA AIRPORT , LV) observed 0250 UTC 24 January 2019
Temperature: -5.0°C (23°F)
Dewpoint: -7.0°C (19°F) [RH = 86%]
Pressure (altimeter): 29.97 inches Hg (1015.0 mb)
Winds: from the SW (220 degrees) at 7 MPH (6 knots; 3.1 m/s)
Visibility: 6 or more miles (10+ km)
Ceiling: 4600 feet AGL
Clouds: scattered clouds at 2600 feet AGL
overcast cloud deck at 4600 feet AGL
Weather: -SN  (light snow)

METAR text: EVRA 240220Z 23006KT 9000 -SN SCT026 OVC044 M05/M06 Q1015 R18/410195 NOSIG
Conditions at: EVRA (RIGA AIRPORT , LV) observed 0220 UTC 24 January 2019
Temperature: -5.0°C (23°F)
Dewpoint: -6.0°C (21°F) [RH = 93%]
Pressure (altimeter): 29.97 inches Hg (1015.0 mb)
Winds: from the SW (230 degrees) at 7 MPH (6 knots; 3.1 m/s)
Visibility: 6 miles ( 9 km)
Ceiling: 4400 feet AGL
Clouds: scattered clouds at 2600 feet AGL
overcast cloud deck at 4400 feet AGL
Weather: -SN  (light snow)

METAR text: EVRA 240150Z 22006KT 9000 -SN SCT025 OVC040 M05/M06 Q1015 R18/410195 NOSIG
Conditions at: EVRA (RIGA AIRPORT , LV) observed 0150 UTC 24 January 2019
Temperature: -5.0°C (23°F)
Dewpoint: -6.0°C (21°F) [RH = 93%]
Pressure (altimeter): 29.97 inches Hg (1015.0 mb)
Winds: from the SW (220 degrees) at 7 MPH (6 knots; 3.1 m/s)
Visibility: 6 miles ( 9 km)
Ceiling: 4000 feet AGL
Clouds: scattered clouds at 2500 feet AGL
overcast cloud deck at 4000 feet AGL
Weather: -SN  (light snow)

METAR text: EVRA 240120Z 22006KT 7000 -SN SCT021 OVC029 M05/M06 Q1015 R18/410195 NOSIG
Conditions at: EVRA (RIGA AIRPORT , LV) observed 0120 UTC 24 January 2019
Temperature: -5.0°C (23°F)
Dewpoint: -6.0°C (21°F) [RH = 93%]
Pressure (altimeter): 29.97 inches Hg (1015.0 mb)
Winds: from the SW (220 degrees) at 7 MPH (6 knots; 3.1 m/s)
Visibility: 4 miles ( 7 km)
Ceiling: 2900 feet AGL
Clouds: scattered clouds at 2100 feet AGL
overcast cloud deck at 2900 feet AGL
Weather: -SN  (light snow)

METAR text: EVRA 240050Z 22007KT 9000 -SN SCT020 OVC024 M05/M07 Q1015 R18/410195 NOSIG
Conditions at: EVRA (RIGA AIRPORT , LV) observed 0050 UTC 24 January 2019
Temperature: -5.0°C (23°F)
Dewpoint: -7.0°C (19°F) [RH = 86%]
Pressure (altimeter): 29.97 inches Hg (1015.0 mb)
Winds: from the SW (220 degrees) at 8 MPH (7 knots; 3.6 m/s)
Visibility: 6 miles ( 9 km)
Ceiling: 2400 feet AGL
Clouds: scattered clouds at 2000 feet AGL
overcast cloud deck at 2400 feet AGL
Weather: -SN  (light snow)

METAR text: EVRA 240020Z 22006KT 9999 -SN OVC021 M05/M07 Q1015 R18/410195 NOSIG
Conditions at: EVRA (RIGA AIRPORT , LV) observed 0020 UTC 24 January 2019
Temperature: -5.0°C (23°F)
Dewpoint: -7.0°C (19°F) [RH = 86%]
Pressure (altimeter): 29.97 inches Hg (1015.0 mb)
Winds: from the SW (220 degrees) at 7 MPH (6 knots; 3.1 m/s)
Visibility: 6 or more miles (10+ km)
Ceiling: 2100 feet AGL
Clouds: overcast cloud deck at 2100 feet AGL
Weather: -SN  (light snow)

METAR text: EVRA 232350Z 21007KT 9999 -SN OVC021 M05/M07 Q1015 R18/410195 NOSIG
Conditions at: EVRA (RIGA AIRPORT , LV) observed 2350 UTC 23 January 2019
Temperature: -5.0°C (23°F)
Dewpoint: -7.0°C (19°F) [RH = 86%]
Pressure (altimeter): 29.97 inches Hg (1015.0 mb)
Winds: from the SSW (210 degrees) at 8 MPH (7 knots; 3.6 m/s)
Visibility: 6 or more miles (10+ km)
Ceiling: 2100 feet AGL
Clouds: overcast cloud deck at 2100 feet AGL
Weather: -SN  (light snow)

METAR text: EVRA 232320Z 20007KT 9999 -SN OVC020 M05/M07 Q1015 R18/410195 NOSIG
Conditions at: EVRA (RIGA AIRPORT , LV) observed 2320 UTC 23 January 2019
Temperature: -5.0°C (23°F)
Dewpoint: -7.0°C (19°F) [RH = 86%]
Pressure (altimeter): 29.97 inches Hg (1015.0 mb)
Winds: from the SSW (200 degrees) at 8 MPH (7 knots; 3.6 m/s)
Visibility: 6 or more miles (10+ km)
Ceiling: 2000 feet AGL
Clouds: overcast cloud deck at 2000 feet AGL
Weather: -SN  (light snow)

METAR text: EVRA 232250Z 20007KT 9000 -SN OVC022 M06/M07 Q1015 R18/410195 NOSIG
Conditions at: EVRA (RIGA AIRPORT , LV) observed 2250 UTC 23 January 2019
Temperature: -6.0°C (21°F)
Dewpoint: -7.0°C (19°F) [RH = 93%]
Pressure (altimeter): 29.97 inches Hg (1015.0 mb)
Winds: from the SSW (200 degrees) at 8 MPH (7 knots; 3.6 m/s)
Visibility: 6 miles ( 9 km)
Ceiling: 2200 feet AGL
Clouds: overcast cloud deck at 2200 feet AGL
Weather: -SN  (light snow)

METAR text: EVRA 232220Z 20007KT 9000 OVC024 M06/M07 Q1015 R18/410195 NOSIG
Conditions at: EVRA (RIGA AIRPORT , LV) observed 2220 UTC 23 January 2019
Temperature: -6.0°C (21°F)
Dewpoint: -7.0°C (19°F) [RH = 93%]
Pressure (altimeter): 29.97 inches Hg (1015.0 mb)
Winds: from the SSW (200 degrees) at 8 MPH (7 knots; 3.6 m/s)
Visibility: 6 miles ( 9 km)
Ceiling: 2400 feet AGL
Clouds: overcast cloud deck at 2400 feet AGL
Weather: no significant weather observed at this time

METAR text: EVRA 232150Z 19006KT 8000 OVC028 M06/M07 Q1014 R18/410195 NOSIG
Conditions at: EVRA (RIGA AIRPORT , LV) observed 2150 UTC 23 January 2019
Temperature: -6.0°C (21°F)
Dewpoint: -7.0°C (19°F) [RH = 93%]
Pressure (altimeter): 29.94 inches Hg (1014.0 mb)
Winds: from the S (190 degrees) at 7 MPH (6 knots; 3.1 m/s)
Visibility: 5 miles ( 8 km)
Ceiling: 2800 feet AGL
Clouds: overcast cloud deck at 2800 feet AGL
Weather: no significant weather observed at this time

METAR text: EVRA 232120Z 19006KT 7000 OVC024 M07/M07 Q1014 R18/410195 NOSIG
Conditions at: EVRA (RIGA AIRPORT , LV) observed 2120 UTC 23 January 2019
Temperature: -7.0°C (19°F)
Dewpoint: -7.0°C (19°F) [RH = 100%]
Pressure (altimeter): 29.94 inches Hg (1014.0 mb)
Winds: from the S (190 degrees) at 7 MPH (6 knots; 3.1 m/s)
Visibility: 4 miles ( 7 km)
Ceiling: 2400 feet AGL
Clouds: overcast cloud deck at 2400 feet AGL
Weather: no significant weather observed at this time

METAR text: EVRA 232050Z 18005KT 7000 BKN025 M07/M08 Q1014 R18/410195 NOSIG
Conditions at: EVRA (RIGA AIRPORT , LV) observed 2050 UTC 23 January 2019
Temperature: -7.0°C (19°F)
Dewpoint: -8.0°C (18°F) [RH = 93%]
Pressure (altimeter): 29.94 inches Hg (1014.0 mb)
Winds: from the S (180 degrees) at 6 MPH (5 knots; 2.6 m/s)
Visibility: 4 miles ( 7 km)
Ceiling: 2500 feet AGL
Clouds: broken clouds at 2500 feet AGL
Weather: no significant weather observed at this time

METAR text: EVRA 232020Z 17005KT 7000 BKN026 M07/M07 Q1014 R18/410195 NOSIG
Conditions at: EVRA (RIGA AIRPORT , LV) observed 2020 UTC 23 January 2019
Temperature: -7.0°C (19°F)
Dewpoint: -7.0°C (19°F) [RH = 100%]
Pressure (altimeter): 29.94 inches Hg (1014.0 mb)
Winds: from the S (170 degrees) at 6 MPH (5 knots; 2.6 m/s)
Visibility: 4 miles ( 7 km)
Ceiling: 2600 feet AGL
Clouds: broken clouds at 2600 feet AGL
Weather: no significant weather observed at this time

METAR text: EVRA 231950Z 20004KT 7000 SCT026 M08/M08 Q1014 R18/410195 NOSIG
Conditions at: EVRA (RIGA AIRPORT , LV) observed 1950 UTC 23 January 2019
Temperature: -8.0°C (18°F)
Dewpoint: -8.0°C (18°F) [RH = 100%]
Pressure (altimeter): 29.94 inches Hg (1014.0 mb)
Winds: from the SSW (200 degrees) at 5 MPH (4 knots; 2.1 m/s)
Visibility: 4 miles ( 7 km)
Ceiling: at least 12,000 feet AGL
Clouds: scattered clouds at 2600 feet AGL
Weather: no significant weather observed at this time

METAR text: EVRA 231920Z 19005KT 7000 SCT030 M08/M08 Q1014 R18/410195 NOSIG
Conditions at: EVRA (RIGA AIRPORT , LV) observed 1920 UTC 23 January 2019
Temperature: -8.0°C (18°F)
Dewpoint: -8.0°C (18°F) [RH = 100%]
Pressure (altimeter): 29.94 inches Hg (1014.0 mb)
Winds: from the S (190 degrees) at 6 MPH (5 knots; 2.6 m/s)
Visibility: 4 miles ( 7 km)
Ceiling: at least 12,000 feet AGL
Clouds: scattered clouds at 3000 feet AGL
Weather: no significant weather observed at this time

METAR text: EVRA 231850Z 19006KT 7000 SCT028 M07/M08 Q1014 R18/490195 NOSIG
Conditions at: EVRA (RIGA AIRPORT , LV) observed 1850 UTC 23 January 2019
Temperature: -7.0°C (19°F)
Dewpoint: -8.0°C (18°F) [RH = 93%]
Pressure (altimeter): 29.94 inches Hg (1014.0 mb)
Winds: from the S (190 degrees) at 7 MPH (6 knots; 3.1 m/s)
Visibility: 4 miles ( 7 km)
Ceiling: at least 12,000 feet AGL
Clouds: scattered clouds at 2800 feet AGL
Weather: no significant weather observed at this time

METAR text: EVRA 231820Z 20006KT 7000 BKN028 M07/M07 Q1014 R18/490195 NOSIG
Conditions at: EVRA (RIGA AIRPORT , LV) observed 1820 UTC 23 January 2019
Temperature: -7.0°C (19°F)
Dewpoint: -7.0°C (19°F) [RH = 100%]
Pressure (altimeter): 29.94 inches Hg (1014.0 mb)
Winds: from the SSW (200 degrees) at 7 MPH (6 knots; 3.1 m/s)
Visibility: 4 miles ( 7 km)
Ceiling: 2800 feet AGL
Clouds: broken clouds at 2800 feet AGL
Weather: no significant weather observed at this time

METAR text: EVRA 231750Z 19007KT 7000 BKN028 OVC047 M06/M07 Q1014 R18/490195 NOSIG
Conditions at: EVRA (RIGA AIRPORT , LV) observed 1750 UTC 23 January 2019
Temperature: -6.0°C (21°F)
Dewpoint: -7.0°C (19°F) [RH = 93%]
Pressure (altimeter): 29.94 inches Hg (1014.0 mb)
Winds: from the S (190 degrees) at 8 MPH (7 knots; 3.6 m/s)
Visibility: 4 miles ( 7 km)
Ceiling: 2800 feet AGL
Clouds: broken clouds at 2800 feet AGL
overcast cloud deck at 4700 feet AGL
Weather: no significant weather observed at this time

METAR text: EVRA 231720Z 19007KT 7000 SCT027 OVC045 M06/M07 Q1014 R18/490195 NOSIG
Conditions at: EVRA (RIGA AIRPORT , LV) observed 1720 UTC 23 January 2019
Temperature: -6.0°C (21°F)
Dewpoint: -7.0°C (19°F) [RH = 93%]
Pressure (altimeter): 29.94 inches Hg (1014.0 mb)
Winds: from the S (190 degrees) at 8 MPH (7 knots; 3.6 m/s)
Visibility: 4 miles ( 7 km)
Ceiling: 4500 feet AGL
Clouds: scattered clouds at 2700 feet AGL
overcast cloud deck at 4500 feet AGL
Weather: no significant weather observed at this time

METAR text: EVRA 231650Z 19008KT 6000 OVC046 M06/M06 Q1014 R18/490195 NOSIG
Conditions at: EVRA (RIGA AIRPORT , LV) observed 1650 UTC 23 January 2019
Temperature: -6.0°C (21°F)
Dewpoint: -6.0°C (21°F) [RH = 100%]
Pressure (altimeter): 29.94 inches Hg (1014.0 mb)
Winds: from the S (190 degrees) at 9 MPH (8 knots; 4.1 m/s)
Visibility: 4 miles ( 6 km)
Ceiling: 4600 feet AGL
Clouds: overcast cloud deck at 4600 feet AGL
Weather: no significant weather observed at this time

METAR text: EVRA 231620Z 19007KT 6000 FEW007 OVC045 M06/M06 Q1013 R18/490195 NOSIG
Conditions at: EVRA (RIGA AIRPORT , LV) observed 1620 UTC 23 January 2019
Temperature: -6.0°C (21°F)
Dewpoint: -6.0°C (21°F) [RH = 100%]
Pressure (altimeter): 29.91 inches Hg (1013.0 mb)
Winds: from the S (190 degrees) at 8 MPH (7 knots; 3.6 m/s)
Visibility: 4 miles ( 6 km)
Ceiling: 4500 feet AGL
Clouds: few clouds at 700 feet AGL
overcast cloud deck at 4500 feet AGL
Weather: no significant weather observed at this time

METAR text: EVRA 231550Z 19008KT 6000 FEW006 OVC044 M06/M06 Q1013 R18/490195 NOSIG
Conditions at: EVRA (RIGA AIRPORT , LV) observed 1550 UTC 23 January 2019
Temperature: -6.0°C (21°F)
Dewpoint: -6.0°C (21°F) [RH = 100%]
Pressure (altimeter): 29.91 inches Hg (1013.0 mb)
Winds: from the S (190 degrees) at 9 MPH (8 knots; 4.1 m/s)
Visibility: 4 miles ( 6 km)
Ceiling: 4400 feet AGL
Clouds: few clouds at 600 feet AGL
overcast cloud deck at 4400 feet AGL
Weather: no significant weather observed at this time

METAR text: EVRA 231520Z 18007KT 6000 FEW006 SCT037 OVC043 M06/M06 Q1013 R18/490195 NOSIG
Conditions at: EVRA (RIGA AIRPORT , LV) observed 1520 UTC 23 January 2019
Temperature: -6.0°C (21°F)
Dewpoint: -6.0°C (21°F) [RH = 100%]
Pressure (altimeter): 29.91 inches Hg (1013.0 mb)
Winds: from the S (180 degrees) at 8 MPH (7 knots; 3.6 m/s)
Visibility: 4 miles ( 6 km)
Ceiling: 4300 feet AGL
Clouds: few clouds at 600 feet AGL
scattered clouds at 3700 feet AGL
overcast cloud deck at 4300 feet AGL
Weather: no significant weather observed at this time

METAR text: EVRA 231450Z 18008KT 4600 BR BKN007 OVC041 M06/M06 Q1013 R18/490195 NOSIG
Conditions at: EVRA (RIGA AIRPORT , LV) observed 1450 UTC 23 January 2019
Temperature: -6.0°C (21°F)
Dewpoint: -6.0°C (21°F) [RH = 100%]
Pressure (altimeter): 29.91 inches Hg (1013.0 mb)
Winds: from the S (180 degrees) at 9 MPH (8 knots; 4.1 m/s)
Visibility: 2.86 miles (4.60 km)
Ceiling: 700 feet AGL
Clouds: broken clouds at 700 feet AGL
overcast cloud deck at 4100 feet AGL
Weather: BR  (mist)

METAR text: EVRA 231420Z 19009KT 5000 BR BKN007 OVC040 M06/M07 Q1013 R18/490195 NOSIG
Conditions at: EVRA (RIGA AIRPORT , LV) observed 1420 UTC 23 January 2019
Temperature: -6.0°C (21°F)
Dewpoint: -7.0°C (19°F) [RH = 93%]
Pressure (altimeter): 29.91 inches Hg (1013.0 mb)
Winds: from the S (190 degrees) at 10 MPH (9 knots; 4.6 m/s)
Visibility: 3 miles ( 5 km)
Ceiling: 700 feet AGL
Clouds: broken clouds at 700 feet AGL
overcast cloud deck at 4000 feet AGL
Weather: BR  (mist)

METAR text: EVRA 231350Z 18010KT 5000 BR BKN006 OVC040 M06/M07 Q1013 R18/490195 NOSIG
Conditions at: EVRA (RIGA AIRPORT , LV) observed 1350 UTC 23 January 2019
Temperature: -6.0°C (21°F)
Dewpoint: -7.0°C (19°F) [RH = 93%]
Pressure (altimeter): 29.91 inches Hg (1013.0 mb)
Winds: from the S (180 degrees) at 12 MPH (10 knots; 5.1 m/s)
Visibility: 3 miles ( 5 km)
Ceiling: 600 feet AGL
Clouds: broken clouds at 600 feet AGL
overcast cloud deck at 4000 feet AGL
Weather: BR  (mist)

METAR text: EVRA 231320Z 18010KT 5000 BR OVC007 M06/M06 Q1013 R18/490195 BECMG BKN020
Conditions at: EVRA (RIGA AIRPORT , LV) observed 1320 UTC 23 January 2019
Temperature: -6.0°C (21°F)
Dewpoint: -6.0°C (21°F) [RH = 100%]
Pressure (altimeter): 29.91 inches Hg (1013.0 mb)
Winds: from the S (180 degrees) at 12 MPH (10 knots; 5.1 m/s)
Visibility: 3 miles ( 5 km)
Ceiling: 700 feet AGL
Clouds: overcast cloud deck at 700 feet AGL
Weather: BR  (mist)

METAR text: EVRA 231250Z 18011KT 6000 OVC007 M06/M06 Q1013 R18/490195 BECMG BKN020
Conditions at: EVRA (RIGA AIRPORT , LV) observed 1250 UTC 23 January 2019
Temperature: -6.0°C (21°F)
Dewpoint: -6.0°C (21°F) [RH = 100%]
Pressure (altimeter): 29.91 inches Hg (1013.0 mb)
Winds: from the S (180 degrees) at 13 MPH (11 knots; 5.7 m/s)
Visibility: 4 miles ( 6 km)
Ceiling: 700 feet AGL
Clouds: overcast cloud deck at 700 feet AGL
Weather: no significant weather observed at this time

METAR text: EVRA 231220Z 18011KT 6000 OVC008 M05/M06 Q1013 R18/490195 BECMG BKN020
Conditions at: EVRA (RIGA AIRPORT , LV) observed 1220 UTC 23 January 2019
Temperature: -5.0°C (23°F)
Dewpoint: -6.0°C (21°F) [RH = 93%]
Pressure (altimeter): 29.91 inches Hg (1013.0 mb)
Winds: from the S (180 degrees) at 13 MPH (11 knots; 5.7 m/s)
Visibility: 4 miles ( 6 km)
Ceiling: 800 feet AGL
Clouds: overcast cloud deck at 800 feet AGL
Weather: no significant weather observed at this time

METAR text: EVRA 231150Z 18011KT 6000 SCT008 OVC010 M05/M06 Q1013 R18/490195 BECMG BKN020
Conditions at: EVRA (RIGA AIRPORT , LV) observed 1150 UTC 23 January 2019
Temperature: -5.0°C (23°F)
Dewpoint: -6.0°C (21°F) [RH = 93%]
Pressure (altimeter): 29.91 inches Hg (1013.0 mb)
Winds: from the S (180 degrees) at 13 MPH (11 knots; 5.7 m/s)
Visibility: 4 miles ( 6 km)
Ceiling: 1000 feet AGL
Clouds: scattered clouds at 800 feet AGL
overcast cloud deck at 1000 feet AGL
Weather: no significant weather observed at this time

METAR text: EVRA 231120Z 19010KT 7000 OVC009 M05/M06 Q1013 R18/490195 BECMG BKN010 OVC020
Conditions at: EVRA (RIGA AIRPORT , LV) observed 1120 UTC 23 January 2019
Temperature: -5.0°C (23°F)
Dewpoint: -6.0°C (21°F) [RH = 93%]
Pressure (altimeter): 29.91 inches Hg (1013.0 mb)
Winds: from the S (190 degrees) at 12 MPH (10 knots; 5.1 m/s)
Visibility: 4 miles ( 7 km)
Ceiling: 900 feet AGL
Clouds: overcast cloud deck at 900 feet AGL
Weather: no significant weather observed at this time

METAR text: EVRA 231050Z 18011KT 7000 OVC009 M05/M06 Q1013 R18/490195 NOSIG
Conditions at: EVRA (RIGA AIRPORT , LV) observed 1050 UTC 23 January 2019
Temperature: -5.0°C (23°F)
Dewpoint: -6.0°C (21°F) [RH = 93%]
Pressure (altimeter): 29.91 inches Hg (1013.0 mb)
Winds: from the S (180 degrees) at 13 MPH (11 knots; 5.7 m/s)
Visibility: 4 miles ( 7 km)
Ceiling: 900 feet AGL
Clouds: overcast cloud deck at 900 feet AGL
Weather: no significant weather observed at this time

METAR text: EVRA 231020Z 19010KT 8000 OVC010 M05/M06 Q1013 R18/490195 NOSIG
Conditions at: EVRA (RIGA AIRPORT , LV) observed 1020 UTC 23 January 2019
Temperature: -5.0°C (23°F)
Dewpoint: -6.0°C (21°F) [RH = 93%]
Pressure (altimeter): 29.91 inches Hg (1013.0 mb)
Winds: from the S (190 degrees) at 12 MPH (10 knots; 5.1 m/s)
Visibility: 5 miles ( 8 km)
Ceiling: 1000 feet AGL
Clouds: overcast cloud deck at 1000 feet AGL
Weather: no significant weather observed at this time

METAR text: EVRA 230950Z 18010KT 8000 OVC009 M05/M06 Q1013 R18/490195 NOSIG
Conditions at: EVRA (RIGA AIRPORT , LV) observed 0950 UTC 23 January 2019
Temperature: -5.0°C (23°F)
Dewpoint: -6.0°C (21°F) [RH = 93%]
Pressure (altimeter): 29.91 inches Hg (1013.0 mb)
Winds: from the S (180 degrees) at 12 MPH (10 knots; 5.1 m/s)
Visibility: 5 miles ( 8 km)
Ceiling: 900 feet AGL
Clouds: overcast cloud deck at 900 feet AGL
Weather: no significant weather observed at this time

METAR text: EVRA 230920Z 19009KT 7000 OVC009 M05/M06 Q1013 R18/490195 NOSIG
Conditions at: EVRA (RIGA AIRPORT , LV) observed 0920 UTC 23 January 2019
Temperature: -5.0°C (23°F)
Dewpoint: -6.0°C (21°F) [RH = 93%]
Pressure (altimeter): 29.91 inches Hg (1013.0 mb)
Winds: from the S (190 degrees) at 10 MPH (9 knots; 4.6 m/s)
Visibility: 4 miles ( 7 km)
Ceiling: 900 feet AGL
Clouds: overcast cloud deck at 900 feet AGL
Weather: no significant weather observed at this time

METAR text: EVRA 230850Z 20007KT 8000 OVC009 M05/M06 Q1013 R18/490195 NOSIG
Conditions at: EVRA (RIGA AIRPORT , LV) observed 0850 UTC 23 January 2019
Temperature: -5.0°C (23°F)
Dewpoint: -6.0°C (21°F) [RH = 93%]
Pressure (altimeter): 29.91 inches Hg (1013.0 mb)
Winds: from the SSW (200 degrees) at 8 MPH (7 knots; 3.6 m/s)
Visibility: 5 miles ( 8 km)
Ceiling: 900 feet AGL
Clouds: overcast cloud deck at 900 feet AGL
Weather: no significant weather observed at this time

METAR text: EVRA 230820Z 20007KT 170V230 8000 OVC008 M06/M07 Q1013 R18/490195 NOSIG
Conditions at: EVRA (RIGA AIRPORT , LV) observed 0820 UTC 23 January 2019
Temperature: -6.0°C (21°F)
Dewpoint: -7.0°C (19°F) [RH = 93%]
Pressure (altimeter): 29.91 inches Hg (1013.0 mb)
Winds: from the SSW (200 degrees) at 8 MPH (7 knots; 3.6 m/s)
Visibility: 5 miles ( 8 km)
Ceiling: 800 feet AGL
Clouds: overcast cloud deck at 800 feet AGL
Weather: no significant weather observed at this time

METAR text: EVRA 230750Z 21005KT 7000 OVC008 M06/M07 Q1013 R18/490195 NOSIG
Conditions at: EVRA (RIGA AIRPORT , LV) observed 0750 UTC 23 January 2019
Temperature: -6.0°C (21°F)
Dewpoint: -7.0°C (19°F) [RH = 93%]
Pressure (altimeter): 29.91 inches Hg (1013.0 mb)
Winds: from the SSW (210 degrees) at 6 MPH (5 knots; 2.6 m/s)
Visibility: 4 miles ( 7 km)
Ceiling: 800 feet AGL
Clouds: overcast cloud deck at 800 feet AGL
Weather: no significant weather observed at this time

METAR text: EVRA 230720Z 23005KT 180V300 7000 OVC007 M06/M07 Q1013 R18/490195 NOSIG
Conditions at: EVRA (RIGA AIRPORT , LV) observed 0720 UTC 23 January 2019
Temperature: -6.0°C (21°F)
Dewpoint: -7.0°C (19°F) [RH = 93%]
Pressure (altimeter): 29.91 inches Hg (1013.0 mb)
Winds: from the SW (230 degrees) at 6 MPH (5 knots; 2.6 m/s)
Visibility: 4 miles ( 7 km)
Ceiling: 700 feet AGL
Clouds: overcast cloud deck at 700 feet AGL
Weather: no significant weather observed at this time

METAR text: EVRA 230650Z 19012KT 7000 OVC006 M06/M06 Q1013 R18/490195 NOSIG
Conditions at: EVRA (RIGA AIRPORT , LV) observed 0650 UTC 23 January 2019
Temperature: -6.0°C (21°F)
Dewpoint: -6.0°C (21°F) [RH = 100%]
Pressure (altimeter): 29.91 inches Hg (1013.0 mb)
Winds: from the S (190 degrees) at 14 MPH (12 knots; 6.2 m/s)
Visibility: 4 miles ( 7 km)
Ceiling: 600 feet AGL
Clouds: overcast cloud deck at 600 feet AGL
Weather: no significant weather observed at this time

METAR text: EVRA 230620Z 19011KT 7000 OVC006 M06/M06 Q1013 R18/490195 NOSIG
Conditions at: EVRA (RIGA AIRPORT , LV) observed 0620 UTC 23 January 2019
Temperature: -6.0°C (21°F)
Dewpoint: -6.0°C (21°F) [RH = 100%]
Pressure (altimeter): 29.91 inches Hg (1013.0 mb)
Winds: from the S (190 degrees) at 13 MPH (11 knots; 5.7 m/s)
Visibility: 4 miles ( 7 km)
Ceiling: 600 feet AGL
Clouds: overcast cloud deck at 600 feet AGL
Weather: no significant weather observed at this time

METAR text: EVRA 230550Z 19008KT 8000 OVC006 M06/M06 Q1013 R18/490195 NOSIG
Conditions at: EVRA (RIGA AIRPORT , LV) observed 0550 UTC 23 January 2019
Temperature: -6.0°C (21°F)
Dewpoint: -6.0°C (21°F) [RH = 100%]
Pressure (altimeter): 29.91 inches Hg (1013.0 mb)
Winds: from the S (190 degrees) at 9 MPH (8 knots; 4.1 m/s)
Visibility: 5 miles ( 8 km)
Ceiling: 600 feet AGL
Clouds: overcast cloud deck at 600 feet AGL
Weather: no significant weather observed at this time

METAR text: EVRA 230520Z 20009KT 8000 OVC006 M06/M06 Q1013 R18/490195 NOSIG
Conditions at: EVRA (RIGA AIRPORT , LV) observed 0520 UTC 23 January 2019
Temperature: -6.0°C (21°F)
Dewpoint: -6.0°C (21°F) [RH = 100%]
Pressure (altimeter): 29.91 inches Hg (1013.0 mb)
Winds: from the SSW (200 degrees) at 10 MPH (9 knots; 4.6 m/s)
Visibility: 5 miles ( 8 km)
Ceiling: 600 feet AGL
Clouds: overcast cloud deck at 600 feet AGL
Weather: no significant weather observed at this time

METAR text: EVRA 230450Z 19010KT 8000 OVC006 M06/M06 Q1013 R18/490195 NOSIG
Conditions at: EVRA (RIGA AIRPORT , LV) observed 0450 UTC 23 January 2019
Temperature: -6.0°C (21°F)
Dewpoint: -6.0°C (21°F) [RH = 100%]
Pressure (altimeter): 29.91 inches Hg (1013.0 mb)
Winds: from the S (190 degrees) at 12 MPH (10 knots; 5.1 m/s)
Visibility: 5 miles ( 8 km)
Ceiling: 600 feet AGL
Clouds: overcast cloud deck at 600 feet AGL
Weather: no significant weather observed at this time

METAR text: EVRA 230420Z 19010KT 8000 OVC006 M06/M06 Q1012 R18/490195 NOSIG
Conditions at: EVRA (RIGA AIRPORT , LV) observed 0420 UTC 23 January 2019
Temperature: -6.0°C (21°F)
Dewpoint: -6.0°C (21°F) [RH = 100%]
Pressure (altimeter): 29.88 inches Hg (1012.0 mb)
Winds: from the S (190 degrees) at 12 MPH (10 knots; 5.1 m/s)
Visibility: 5 miles ( 8 km)
Ceiling: 600 feet AGL
Clouds: overcast cloud deck at 600 feet AGL
Weather: no significant weather observed at this time

METAR text: EVRA 230350Z 20009KT 8000 OVC007 M06/M06 Q1013 R18/490195 NOSIG
Conditions at: EVRA (RIGA AIRPORT , LV) observed 0350 UTC 23 January 2019
Temperature: -6.0°C (21°F)
Dewpoint: -6.0°C (21°F) [RH = 100%]
Pressure (altimeter): 29.91 inches Hg (1013.0 mb)
Winds: from the SSW (200 degrees) at 10 MPH (9 knots; 4.6 m/s)
Visibility: 5 miles ( 8 km)
Ceiling: 700 feet AGL
Clouds: overcast cloud deck at 700 feet AGL
Weather: no significant weather observed at this time

METAR text: EVRA 230320Z 19010KT 8000 OVC007 M06/M06 Q1012 R18/490195 NOSIG
Conditions at: EVRA (RIGA AIRPORT , LV) observed 0320 UTC 23 January 2019
Temperature: -6.0°C (21°F)
Dewpoint: -6.0°C (21°F) [RH = 100%]
Pressure (altimeter): 29.88 inches Hg (1012.0 mb)
Winds: from the S (190 degrees) at 12 MPH (10 knots; 5.1 m/s)
Visibility: 5 miles ( 8 km)
Ceiling: 700 feet AGL
Clouds: overcast cloud deck at 700 feet AGL
Weather: no significant weather observed at this time

METAR text: EVRA 230250Z 18011KT 8000 OVC007 M05/M06 Q1013 R18/490195 NOSIG
Conditions at: EVRA (RIGA AIRPORT , LV) observed 0250 UTC 23 January 2019
Temperature: -5.0°C (23°F)
Dewpoint: -6.0°C (21°F) [RH = 93%]
Pressure (altimeter): 29.91 inches Hg (1013.0 mb)
Winds: from the S (180 degrees) at 13 MPH (11 knots; 5.7 m/s)
Visibility: 5 miles ( 8 km)
Ceiling: 700 feet AGL
Clouds: overcast cloud deck at 700 feet AGL
Weather: no significant weather observed at this time

METAR text: EVRA 230220Z 18009KT 8000 OVC007 M05/M06 Q1013 R18/490195 NOSIG
Conditions at: EVRA (RIGA AIRPORT , LV) observed 0220 UTC 23 January 2019
Temperature: -5.0°C (23°F)
Dewpoint: -6.0°C (21°F) [RH = 93%]
Pressure (altimeter): 29.91 inches Hg (1013.0 mb)
Winds: from the S (180 degrees) at 10 MPH (9 knots; 4.6 m/s)
Visibility: 5 miles ( 8 km)
Ceiling: 700 feet AGL
Clouds: overcast cloud deck at 700 feet AGL
Weather: no significant weather observed at this time

METAR text: EVRA 230150Z 20008KT 8000 OVC007 M05/M06 Q1013 R18/490195 NOSIG
Conditions at: EVRA (RIGA AIRPORT , LV) observed 0150 UTC 23 January 2019
Temperature: -5.0°C (23°F)
Dewpoint: -6.0°C (21°F) [RH = 93%]
Pressure (altimeter): 29.91 inches Hg (1013.0 mb)
Winds: from the SSW (200 degrees) at 9 MPH (8 knots; 4.1 m/s)
Visibility: 5 miles ( 8 km)
Ceiling: 700 feet AGL
Clouds: overcast cloud deck at 700 feet AGL
Weather: no significant weather observed at this time

METAR text: EVRA 230120Z 18009KT 8000 OVC007 M05/M05 Q1013 R18/490195 NOSIG
Conditions at: EVRA (RIGA AIRPORT , LV) observed 0120 UTC 23 January 2019
Temperature: -5.0°C (23°F)
Dewpoint: -5.0°C (23°F) [RH = 100%]
Pressure (altimeter): 29.91 inches Hg (1013.0 mb)
Winds: from the S (180 degrees) at 10 MPH (9 knots; 4.6 m/s)
Visibility: 5 miles ( 8 km)
Ceiling: 700 feet AGL
Clouds: overcast cloud deck at 700 feet AGL
Weather: no significant weather observed at this time

METAR text: EVRA 230050Z 18009KT 7000 OVC007 M05/M05 Q1013 R18/490195 NOSIG
Conditions at: EVRA (RIGA AIRPORT , LV) observed 0050 UTC 23 January 2019
Temperature: -5.0°C (23°F)
Dewpoint: -5.0°C (23°F) [RH = 100%]
Pressure (altimeter): 29.91 inches Hg (1013.0 mb)
Winds: from the S (180 degrees) at 10 MPH (9 knots; 4.6 m/s)
Visibility: 4 miles ( 7 km)
Ceiling: 700 feet AGL
Clouds: overcast cloud deck at 700 feet AGL
Weather: no significant weather observed at this time

METAR text: EVRA 230020Z 17006KT 7000 -SN OVC007 M04/M05 Q1013 R18/490195 NOSIG
Conditions at: EVRA (RIGA AIRPORT , LV) observed 0020 UTC 23 January 2019
Temperature: -4.0°C (25°F)
Dewpoint: -5.0°C (23°F) [RH = 93%]
Pressure (altimeter): 29.91 inches Hg (1013.0 mb)
Winds: from the S (170 degrees) at 7 MPH (6 knots; 3.1 m/s)
Visibility: 4 miles ( 7 km)
Ceiling: 700 feet AGL
Clouds: overcast cloud deck at 700 feet AGL
Weather: -SN  (light snow)

METAR text: EVRA 222350Z 17007KT 7000 -SN OVC007 M05/M05 Q1013 R18/490195 NOSIG
Conditions at: EVRA (RIGA AIRPORT , LV) observed 2350 UTC 22 January 2019
Temperature: -5.0°C (23°F)
Dewpoint: -5.0°C (23°F) [RH = 100%]
Pressure (altimeter): 29.91 inches Hg (1013.0 mb)
Winds: from the S (170 degrees) at 8 MPH (7 knots; 3.6 m/s)
Visibility: 4 miles ( 7 km)
Ceiling: 700 feet AGL
Clouds: overcast cloud deck at 700 feet AGL
Weather: -SN  (light snow)

METAR text: EVRA 222320Z 17007KT 8000 -SN OVC007 M05/M05 Q1014 R18/490195 NOSIG
Conditions at: EVRA (RIGA AIRPORT , LV) observed 2320 UTC 22 January 2019
Temperature: -5.0°C (23°F)
Dewpoint: -5.0°C (23°F) [RH = 100%]
Pressure (altimeter): 29.94 inches Hg (1014.0 mb)
Winds: from the S (170 degrees) at 8 MPH (7 knots; 3.6 m/s)
Visibility: 5 miles ( 8 km)
Ceiling: 700 feet AGL
Clouds: overcast cloud deck at 700 feet AGL
Weather: -SN  (light snow)

METAR text: EVRA 222250Z 16008KT 8000 -SN BKN008 OVC011 M05/M05 Q1014 R18/490195 NOSIG
Conditions at: EVRA (RIGA AIRPORT , LV) observed 2250 UTC 22 January 2019
Temperature: -5.0°C (23°F)
Dewpoint: -5.0°C (23°F) [RH = 100%]
Pressure (altimeter): 29.94 inches Hg (1014.0 mb)
Winds: from the SSE (160 degrees) at 9 MPH (8 knots; 4.1 m/s)
Visibility: 5 miles ( 8 km)
Ceiling: 800 feet AGL
Clouds: broken clouds at 800 feet AGL
overcast cloud deck at 1100 feet AGL
Weather: -SN  (light snow)

METAR text: EVRA 222220Z 16008KT 8000 -SN SCT007 BKN012 M05/M05 Q1014 R18/490195 NOSIG
Conditions at: EVRA (RIGA AIRPORT , LV) observed 2220 UTC 22 January 2019
Temperature: -5.0°C (23°F)
Dewpoint: -5.0°C (23°F) [RH = 100%]
Pressure (altimeter): 29.94 inches Hg (1014.0 mb)
Winds: from the SSE (160 degrees) at 9 MPH (8 knots; 4.1 m/s)
Visibility: 5 miles ( 8 km)
Ceiling: 1200 feet AGL
Clouds: scattered clouds at 700 feet AGL
broken clouds at 1200 feet AGL
Weather: -SN  (light snow)

METAR text: EVRA 222150Z 16007KT 9000 -SN SCT010 OVC049 M05/M05 Q1014 R18/310195 NOSIG
Conditions at: EVRA (RIGA AIRPORT , LV) observed 2150 UTC 22 January 2019
Temperature: -5.0°C (23°F)
Dewpoint: -5.0°C (23°F) [RH = 100%]
Pressure (altimeter): 29.94 inches Hg (1014.0 mb)
Winds: from the SSE (160 degrees) at 8 MPH (7 knots; 3.6 m/s)
Visibility: 6 miles ( 9 km)
Ceiling: 4900 feet AGL
Clouds: scattered clouds at 1000 feet AGL
overcast cloud deck at 4900 feet AGL
Weather: -SN  (light snow)

METAR text: EVRA 222120Z 15006KT 9999 FEW006 BKN012 M05/M05 Q1014 R18/310195 NOSIG
Conditions at: EVRA (RIGA AIRPORT , LV) observed 2120 UTC 22 January 2019
Temperature: -5.0°C (23°F)
Dewpoint: -5.0°C (23°F) [RH = 100%]
Pressure (altimeter): 29.94 inches Hg (1014.0 mb)
Winds: from the SSE (150 degrees) at 7 MPH (6 knots; 3.1 m/s)
Visibility: 6 or more miles (10+ km)
Ceiling: 1200 feet AGL
Clouds: few clouds at 600 feet AGL
broken clouds at 1200 feet AGL
Weather: no significant weather observed at this time

METAR text: EVRA 222050Z 16007KT 9000 SCT005 M05/M05 Q1014 R18/310195 NOSIG
Conditions at: EVRA (RIGA AIRPORT , LV) observed 2050 UTC 22 January 2019
Temperature: -5.0°C (23°F)
Dewpoint: -5.0°C (23°F) [RH = 100%]
Pressure (altimeter): 29.94 inches Hg (1014.0 mb)
Winds: from the SSE (160 degrees) at 8 MPH (7 knots; 3.6 m/s)
Visibility: 6 miles ( 9 km)
Ceiling: at least 12,000 feet AGL
Clouds: scattered clouds at 500 feet AGL
Weather: no significant weather observed at this time

METAR text: EVRA 222020Z 14006KT 7000 OVC006 M05/M05 Q1014 R18/310195 NOSIG
Conditions at: EVRA (RIGA AIRPORT , LV) observed 2020 UTC 22 January 2019
Temperature: -5.0°C (23°F)
Dewpoint: -5.0°C (23°F) [RH = 100%]
Pressure (altimeter): 29.94 inches Hg (1014.0 mb)
Winds: from the SE (140 degrees) at 7 MPH (6 knots; 3.1 m/s)
Visibility: 4 miles ( 7 km)
Ceiling: 600 feet AGL
Clouds: overcast cloud deck at 600 feet AGL
Weather: no significant weather observed at this time

METAR text: EVRA 221950Z 16007KT 9000 OVC007 M05/M05 Q1014 R18/310195 TEMPO OVC010
Conditions at: EVRA (RIGA AIRPORT , LV) observed 1950 UTC 22 January 2019
Temperature: -5.0°C (23°F)
Dewpoint: -5.0°C (23°F) [RH = 100%]
Pressure (altimeter): 29.94 inches Hg (1014.0 mb)
Winds: from the SSE (160 degrees) at 8 MPH (7 knots; 3.6 m/s)
Visibility: 6 miles ( 9 km)
Ceiling: 700 feet AGL
Clouds: overcast cloud deck at 700 feet AGL
Weather: no significant weather observed at this time

METAR text: EVRA 221920Z 18008KT 160V220 9999 OVC007 M05/M05 Q1014 R18/310195 TEMPO OVC010
Conditions at: EVRA (RIGA AIRPORT , LV) observed 1920 UTC 22 January 2019
Temperature: -5.0°C (23°F)
Dewpoint: -5.0°C (23°F) [RH = 100%]
Pressure (altimeter): 29.94 inches Hg (1014.0 mb)
Winds: from the S (180 degrees) at 9 MPH (8 knots; 4.1 m/s)
Visibility: 6 or more miles (10+ km)
Ceiling: 700 feet AGL
Clouds: overcast cloud deck at 700 feet AGL
Weather: no significant weather observed at this time

METAR text: EVRA 221850Z 19010KT 8000 OVC005 M05/M05 Q1014 R18/310195 NOSIG
Conditions at: EVRA (RIGA AIRPORT , LV) observed 1850 UTC 22 January 2019
Temperature: -5.0°C (23°F)
Dewpoint: -5.0°C (23°F) [RH = 100%]
Pressure (altimeter): 29.94 inches Hg (1014.0 mb)
Winds: from the S (190 degrees) at 12 MPH (10 knots; 5.1 m/s)
Visibility: 5 miles ( 8 km)
Ceiling: 500 feet AGL
Clouds: overcast cloud deck at 500 feet AGL
Weather: no significant weather observed at this time

METAR text: EVRA 221820Z 17007KT 7000 OVC003 M06/M06 Q1015 R18/310195 NOSIG
Conditions at: EVRA (RIGA AIRPORT , LV) observed 1820 UTC 22 January 2019
Temperature: -6.0°C (21°F)
Dewpoint: -6.0°C (21°F) [RH = 100%]
Pressure (altimeter): 29.97 inches Hg (1015.0 mb)
Winds: from the S (170 degrees) at 8 MPH (7 knots; 3.6 m/s)
Visibility: 4 miles ( 7 km)
Ceiling: 300 feet AGL
Clouds: overcast cloud deck at 300 feet AGL
Weather: no significant weather observed at this time

METAR text: EVRA 221750Z 16006KT 7000 OVC003 M06/M06 Q1015 R18/310195 NOSIG
Conditions at: EVRA (RIGA AIRPORT , LV) observed 1750 UTC 22 January 2019
Temperature: -6.0°C (21°F)
Dewpoint: -6.0°C (21°F) [RH = 100%]
Pressure (altimeter): 29.97 inches Hg (1015.0 mb)
Winds: from the SSE (160 degrees) at 7 MPH (6 knots; 3.1 m/s)
Visibility: 4 miles ( 7 km)
Ceiling: 300 feet AGL
Clouds: overcast cloud deck at 300 feet AGL
Weather: no significant weather observed at this time

METAR text: EVRA 221720Z 16005KT 7000 OVC003 M06/M06 Q1015 R18/310195 NOSIG
Conditions at: EVRA (RIGA AIRPORT , LV) observed 1720 UTC 22 January 2019
Temperature: -6.0°C (21°F)
Dewpoint: -6.0°C (21°F) [RH = 100%]
Pressure (altimeter): 29.97 inches Hg (1015.0 mb)
Winds: from the SSE (160 degrees) at 6 MPH (5 knots; 2.6 m/s)
Visibility: 4 miles ( 7 km)
Ceiling: 300 feet AGL
Clouds: overcast cloud deck at 300 feet AGL
Weather: no significant weather observed at this time

METAR text: EVRA 221650Z 16005KT 7000 OVC003 M07/M07 Q1015 R18/310195 NOSIG
Conditions at: EVRA (RIGA AIRPORT , LV) observed 1650 UTC 22 January 2019
Temperature: -7.0°C (19°F)
Dewpoint: -7.0°C (19°F) [RH = 100%]
Pressure (altimeter): 29.97 inches Hg (1015.0 mb)
Winds: from the SSE (160 degrees) at 6 MPH (5 knots; 2.6 m/s)
Visibility: 4 miles ( 7 km)
Ceiling: 300 feet AGL
Clouds: overcast cloud deck at 300 feet AGL
Weather: no significant weather observed at this time

METAR text: EVRA 221620Z 16006KT 7000 OVC003 M07/M07 Q1015 R18/310195 TEMPO OVC005
Conditions at: EVRA (RIGA AIRPORT , LV) observed 1620 UTC 22 January 2019
Temperature: -7.0°C (19°F)
Dewpoint: -7.0°C (19°F) [RH = 100%]
Pressure (altimeter): 29.97 inches Hg (1015.0 mb)
Winds: from the SSE (160 degrees) at 7 MPH (6 knots; 3.1 m/s)
Visibility: 4 miles ( 7 km)
Ceiling: 300 feet AGL
Clouds: overcast cloud deck at 300 feet AGL
Weather: no significant weather observed at this time

Forecast for: EVRA (RIGA AIRPORT , LV)
Text: TAF EVRA 240201Z 2403/2503 19006KT 8000 OVC030
Forecast period: 0300 UTC 24 January 2019 to 0300 UTC 25 January 2019
Forecast type: FROM: standard forecast or significant change
Winds: from the S (190 degrees) at 7 MPH (6 knots; 3.1 m/s)
Visibility: 5 miles (8 km)
Ceiling: 3000 feet AGL
Clouds: overcast cloud deck at 3000 feet AGL
Weather: no significant weather forecast for this period
Text: TEMPO 2409/2418 BKN005 OVC030
Forecast period: 0900 to 1800 UTC 24 January 2019
Forecast type: TEMPORARY: The following changes expected for less than half the time period
Visibility: missing
Ceiling: 500 feet AGL
Clouds: broken clouds at 500 feet AGL
overcast cloud deck at 3000 feet AGL
Weather: no significant weather forecast for this period
Text: TEMPO 2418/2424 3000 BR
Forecast period: 1800 UTC 24 January 2019 to 0000 UTC 25 January 2019
Forecast type: TEMPORARY: The following changes expected for less than half the time period
Visibility: 1.86 miles (2.99 km)
Ceiling: unknown
Clouds: missing
Weather: BR  (mist)